This is the latest recevied weather packets stored in our database for station/object KI5NXU. If no packets are shown the sender has not sent any weather packets the latest 10 day(s).
| Time | Temp. | Humidity | Pressure | Rain* | Wind** | Luminosity | Snow |
|---|---|---|---|---|---|---|---|
| 1777402515 | 30.56° C | 69% | 1009.1 hPa | 0 mm | - | 235 W/m² | - |
| 1777402212 | 31.11° C | 66% | 1009.2 hPa | 0 mm | - | 304 W/m² | - |
| 1777401911 | 31.11° C | 68% | 1009.3 hPa | 0 mm | - | 506 W/m² | - |
| 1777401610 | 30.56° C | 69% | 1009.2 hPa | 0 mm | - | 491 W/m² | - |
| 1777401308 | 31.11° C | 67% | 1009.4 hPa | 0 mm | - | 715 W/m² | - |
| 1777401003 | 31.67° C | 66% | 1009.5 hPa | 0 mm | - | 337 W/m² | - |
| 1777400699 | 32.22° C | 62% | 1009.4 hPa | 0 mm | - | 774 W/m² | - |
| 1777400396 | 31.11° C | 67% | 1009.8 hPa | 0 mm | - | 469 W/m² | - |
| 1777400091 | 31.11° C | 68% | 1009.8 hPa | 0 mm | - | 340 W/m² | - |
| 1777399789 | 30.56° C | 71% | 1010 hPa | 0 mm | - | 359 W/m² | - |
| 1777399486 | 30.56° C | 70% | 1010 hPa | 0 mm | - | 274 W/m² | - |
| 1777399184 | 31.67° C | 66% | 1010 hPa | 0 mm | - | 285 W/m² | - |
| 1777398880 | 31.11° C | 67% | 1010.3 hPa | 0 mm | - | 311 W/m² | - |
| 1777398578 | 31.11° C | 68% | 1010.3 hPa | 0 mm | - | 633 W/m² | - |
| 1777398273 | 31.11° C | 68% | 1010.4 hPa | 0 mm | - | 848 W/m² | - |
| 1777397971 | 30° C | 71% | 1010.3 hPa | 0 mm | - | 799 W/m² | - |
| 1777397667 | 31.11° C | 67% | 1010.7 hPa | 0 mm | - | 830 W/m² | - |
| 1777397363 | 30.56° C | 69% | 1010.4 hPa | 0 mm | - | 719 W/m² | - |
| 1777397060 | 30.56° C | 70% | 1010.5 hPa | 0 mm | - | 250 W/m² | - |
| 1777396756 | 30.56° C | 71% | 1010.7 hPa | 0 mm | - | 848 W/m² | - |
| 1777396453 | 30° C | 71% | 1010.6 hPa | 0 mm | - | 402 W/m² | - |
| 1777396150 | 31.11° C | 71% | 1010.3 hPa | 0 mm | - | 661 W/m² | - |
| 1777395846 | 30° C | 73% | 1010.5 hPa | 0 mm | - | 822 W/m² | - |
| 1777395541 | 30.56° C | 73% | 1010.6 hPa | 0 mm | - | 271 W/m² | - |
| 1777395238 | 30.56° C | 72% | 1010.5 hPa | 0 mm | - | 281 W/m² | - |
* Rain latest hour (hover to see other rain measurements)
** Current wind speed in m/s (hover to see current wind gust speed)